Time;durP1;ratioP1;P1;durP2;ratioP2;P2;SDS_P1;SDS_P2;PMS_P1;PMS_P2;Temp;Humidity;BMP_temperature;BMP_pressure;BME280_temperature;BME280_humidity;BME280_pressure;Samples;Min_cycle;Max_cycle;Signal;HPM_P1;HPM_P2
2022/11/11 00:00:16;;;;;;;18.50;8.85;;;;;;;;;;5021715;28;20309;-76
2022/11/11 00:02:42;;;;;;;16.95;7.90;;;;;;;;;;5020007;28;20079;-75
2022/11/11 00:05:08;;;;;;;17.75;8.80;;;;;;;;;;5003796;28;20042;-79
2022/11/11 00:07:33;;;;;;;18.52;8.35;;;;;;;;;;5020988;28;20096;-75
2022/11/11 00:09:59;;;;;;;17.52;8.63;;;;;;;;;;5021144;28;20046;-75
2022/11/11 00:12:25;;;;;;;19.63;8.68;;;;;;;;;;5021043;28;20064;-76
2022/11/11 00:14:50;;;;;;;18.90;8.63;;;;;;;;;;5021281;28;20302;-74
2022/11/11 00:25:27;;;;;;;16.40;6.85;;;;;;;;;;5024719;28;20037;-74
2022/11/11 00:27:53;;;;;;;15.23;7.22;;;;;;;;;;5024595;28;20025;-75
2022/11/11 00:30:18;;;;;;;19.92;8.00;;;;;;;;;;5024726;28;20021;-74
2022/11/11 00:32:44;;;;;;;16.92;8.02;;;;;;;;;;5024628;28;20051;-74
2022/11/11 00:37:54;;;;;;;17.88;7.25;;;;;;;;;;5024320;28;20040;-74
2022/11/11 00:40:19;;;;;;;15.32;7.20;;;;;;;;;;5024630;28;20021;-75
2022/11/11 00:42:44;;;;;;;14.30;6.72;;;;;;;;;;5024184;28;20030;-74
2022/11/11 00:45:11;;;;;;;13.70;6.38;;;;;;;;;;5024547;28;20101;-75
2022/11/11 00:53:11;;;;;;;10.55;5.28;;;;;;;;;;5024110;28;20217;-74
2022/11/11 00:55:37;;;;;;;11.13;5.07;;;;;;;;;;5023642;28;20102;-76
2022/11/11 00:58:02;;;;;;;9.63;4.88;;;;;;;;;;5023237;28;20026;-75
2022/11/11 01:00:28;;;;;;;11.55;5.15;;;;;;;;;;5006173;28;20417;-76
2022/11/11 01:02:53;;;;;;;14.43;5.32;;;;;;;;;;5021005;28;20029;-75
2022/11/11 01:05:19;;;;;;;13.20;5.53;;;;;;;;;;5005297;28;20038;-77
2022/11/11 01:07:44;;;;;;;9.82;4.72;;;;;;;;;;5021635;28;20038;-77
2022/11/11 01:10:10;;;;;;;11.13;4.75;;;;;;;;;;5022263;28;20026;-75
2022/11/11 01:12:36;;;;;;;8.40;4.28;;;;;;;;;;5021655;28;20041;-75
2022/11/11 01:15:02;;;;;;;9.02;4.50;;;;;;;;;;5022146;28;20053;-75
2022/11/11 01:17:28;;;;;;;10.88;4.85;;;;;;;;;;5004554;28;20135;-75
2022/11/11 01:19:53;;;;;;;10.45;4.70;;;;;;;;;;5022079;28;20053;-76
2022/11/11 01:22:18;;;;;;;12.88;4.53;;;;;;;;;;5022209;28;20026;-75
2022/11/11 01:24:45;;;;;;;11.80;4.40;;;;;;;;;;5022370;28;20324;-75
2022/11/11 01:27:11;;;;;;;9.63;4.80;;;;;;;;;;5023040;28;20014;-74
2022/11/11 01:29:36;;;;;;;9.23;4.35;;;;;;;;;;5022966;28;20052;-76
2022/11/11 01:32:02;;;;;;;9.27;4.35;;;;;;;;;;5023443;28;20021;-75
2022/11/11 01:34:27;;;;;;;8.73;4.38;;;;;;;;;;5022629;28;20357;-76
2022/11/11 01:36:52;;;;;;;10.85;5.00;;;;;;;;;;5023496;28;20233;-75
2022/11/11 01:39:18;;;;;;;11.48;4.82;;;;;;;;;;5022226;28;20049;-75
2022/11/11 01:41:44;;;;;;;8.70;4.65;;;;;;;;;;5023296;28;20061;-74
2022/11/11 01:44:12;;;;;;;10.30;5.20;;;;;;;;;;5023247;28;20037;-76
2022/11/11 01:47:03;;;;;;;10.98;4.88;;;;;;;;;;5023336;28;20026;-75
2022/11/11 01:49:40;;;;;;;8.32;4.20;;;;;;;;;;5015919;28;20025;-75
2022/11/11 01:52:24;;;;;;;10.43;4.50;;;;;;;;;;5023144;28;20036;-74
2022/11/11 01:55:17;;;;;;;8.90;4.40;;;;;;;;;;5023106;28;20022;-75
2022/11/11 01:58:05;;;;;;;10.13;4.60;;;;;;;;;;5021864;28;20033;-74
2022/11/11 02:00:31;;;;;;;8.13;4.57;;;;;;;;;;5023107;28;20092;-75
2022/11/11 02:03:03;;;;;;;9.65;4.53;;;;;;;;;;5022850;28;20052;-74
2022/11/11 02:05:47;;;;;;;9.80;5.10;;;;;;;;;;5022788;28;20376;-74
2022/11/11 02:08:33;;;;;;;8.65;4.40;;;;;;;;;;5022365;28;20025;-75
2022/11/11 02:11:01;;;;;;;11.02;4.78;;;;;;;;;;5026938;28;20029;-75
2022/11/11 02:16:10;;;;;;;11.02;4.60;;;;;;;;;;5042480;28;20138;-75
2022/11/11 02:18:36;;;;;;;11.77;4.65;;;;;;;;;;5041512;28;20324;-74
2022/11/11 02:21:02;;;;;;;10.57;4.70;;;;;;;;;;5041922;28;20260;-74
2022/11/11 02:24:03;;;;;;;10.35;4.13;;;;;;;;;;5024345;28;20044;-74
2022/11/11 02:26:31;;;;;;;9.25;4.57;;;;;;;;;;5042266;28;20056;-75
2022/11/11 02:28:58;;;;;;;7.88;4.43;;;;;;;;;;5041907;28;20017;-74
2022/11/11 02:31:28;;;;;;;8.80;4.25;;;;;;;;;;5042260;28;20028;-74
2022/11/11 02:33:53;;;;;;;12.07;5.53;;;;;;;;;;5041938;28;20009;-74
2022/11/11 02:36:19;;;;;;;7.65;4.50;;;;;;;;;;5041340;28;20317;-75
2022/11/11 02:38:44;;;;;;;10.13;4.53;;;;;;;;;;5022657;28;20119;-75
2022/11/11 02:43:54;;;;;;;10.88;4.60;;;;;;;;;;5041735;28;20056;-76
2022/11/11 02:46:19;;;;;;;7.80;4.20;;;;;;;;;;5041892;28;20316;-76
2022/11/11 02:48:45;;;;;;;10.32;4.45;;;;;;;;;;5039384;28;20021;-76
2022/11/11 02:51:10;;;;;;;10.15;4.70;;;;;;;;;;5031503;28;20405;-77
2022/11/11 02:53:35;;;;;;;8.05;4.55;;;;;;;;;;5034151;28;20496;-78
2022/11/11 02:56:01;;;;;;;9.40;4.35;;;;;;;;;;5032277;28;20079;-77
2022/11/11 02:58:26;;;;;;;7.75;4.20;;;;;;;;;;5029015;28;20470;-76
2022/11/11 03:00:52;;;;;;;7.93;4.50;;;;;;;;;;5031567;28;20121;-76
2022/11/11 03:03:17;;;;;;;8.00;4.25;;;;;;;;;;5029983;28;20382;-77
2022/11/11 03:05:42;;;;;;;8.15;4.20;;;;;;;;;;5029819;28;20045;-75
2022/11/11 03:08:08;;;;;;;10.18;4.32;;;;;;;;;;5034932;28;20021;-78
2022/11/11 03:10:33;;;;;;;9.65;4.43;;;;;;;;;;5033717;28;20025;-76
2022/11/11 03:12:59;;;;;;;8.38;4.03;;;;;;;;;;5029944;28;20416;-78
2022/11/11 03:15:24;;;;;;;9.02;3.90;;;;;;;;;;5032192;28;20021;-75
2022/11/11 03:17:50;;;;;;;9.32;5.05;;;;;;;;;;5015542;28;20025;-75
2022/11/11 03:23:06;;;;;;;10.07;4.60;;;;;;;;;;5040360;28;20035;-75
2022/11/11 03:25:38;;;;;;;10.13;4.57;;;;;;;;;;5022795;28;20037;-75
2022/11/11 03:28:09;;;;;;;9.68;4.60;;;;;;;;;;5040856;28;20045;-75
2022/11/11 03:30:35;;;;;;;7.32;4.38;;;;;;;;;;5041218;28;20373;-75
2022/11/11 03:33:01;;;;;;;8.52;4.20;;;;;;;;;;5041437;28;20089;-75
2022/11/11 03:35:28;;;;;;;8.15;4.10;;;;;;;;;;5041193;28;20025;-75
2022/11/11 03:40:37;;;;;;;7.28;4.00;;;;;;;;;;5040970;28;20036;-75
2022/11/11 03:43:04;;;;;;;9.80;4.20;;;;;;;;;;5023753;28;20096;-75
2022/11/11 03:45:29;;;;;;;10.77;4.57;;;;;;;;;;5040834;28;20329;-76
2022/11/11 03:47:54;;;;;;;7.93;4.15;;;;;;;;;;5041278;28;20056;-75
2022/11/11 03:50:21;;;;;;;9.23;4.22;;;;;;;;;;5041062;28;20096;-75
2022/11/11 03:52:46;;;;;;;7.60;3.65;;;;;;;;;;5041199;28;20018;-75
2022/11/11 03:55:12;;;;;;;6.53;3.53;;;;;;;;;;5041044;28;20757;-74
2022/11/11 03:57:40;;;;;;;8.15;3.72;;;;;;;;;;5044163;28;20025;-74
2022/11/11 04:00:06;;;;;;;6.15;3.50;;;;;;;;;;5027469;28;20301;-74
2022/11/11 04:10:44;;;;;;;7.25;3.13;;;;;;;;;;5044813;28;20028;-75
2022/11/11 04:16:07;;;;;;;6.47;3.53;;;;;;;;;;5004079;28;20037;-75
2022/11/11 04:25:47;;;;;;;12.80;3.33;;;;;;;;;;5044612;28;20387;-76
2022/11/11 04:26:49;;;;;;;7.05;3.42;;;;;;;;;;5044374;28;20029;-75
2022/11/11 04:29:27;;;;;;;8.27;3.42;;;;;;;;;;5026353;28;20329;-75
2022/11/11 04:34:38;;;;;;;9.98;3.58;;;;;;;;;;5024748;28;20037;-76
2022/11/11 04:37:04;;;;;;;8.43;3.45;;;;;;;;;;5024700;28;20021;-75
2022/11/11 04:42:13;;;;;;;6.88;3.25;;;;;;;;;;5024476;28;20032;-75
2022/11/11 04:47:22;;;;;;;8.52;3.97;;;;;;;;;;5024421;28;20036;-74
2022/11/11 04:49:48;;;;;;;8.10;3.78;;;;;;;;;;5024124;28;20026;-76
2022/11/11 04:52:25;;;;;;;7.60;3.97;;;;;;;;;;5024462;28;20056;-75
2022/11/11 04:57:45;;;;;;;8.27;3.63;;;;;;;;;;5024259;28;20257;-75
2022/11/11 05:00:14;;;;;;;13.45;3.90;;;;;;;;;;5023980;28;20080;-75
2022/11/11 05:05:25;;;;;;;6.75;3.85;;;;;;;;;;5023941;28;20088;-74
2022/11/11 05:10:35;;;;;;;6.72;3.67;;;;;;;;;;5023902;28;20021;-74
2022/11/11 05:21:24;;;;;;;6.53;3.47;;;;;;;;;;5022656;28;20068;-75
2022/11/11 05:26:34;;;;;;;7.70;3.50;;;;;;;;;;5022620;28;20372;-76
2022/11/11 05:29:00;;;;;;;7.43;3.40;;;;;;;;;;5022325;28;20045;-76
2022/11/11 05:31:27;;;;;;;8.60;3.65;;;;;;;;;;5022292;28;20026;-78
2022/11/11 05:33:52;;;;;;;6.57;3.55;;;;;;;;;;5022175;28;20368;-76
2022/11/11 05:36:18;;;;;;;7.57;3.75;;;;;;;;;;5020926;28;20040;-76
2022/11/11 05:38:43;;;;;;;7.90;3.70;;;;;;;;;;5021416;28;20210;-77
2022/11/11 05:41:09;;;;;;;6.47;3.67;;;;;;;;;;5021215;28;20101;-79
2022/11/11 05:43:34;;;;;;;6.43;3.60;;;;;;;;;;5022196;28;20029;-79
2022/11/11 05:45:59;;;;;;;6.82;3.65;;;;;;;;;;5022174;28;20026;-77
2022/11/11 05:48:25;;;;;;;7.18;3.95;;;;;;;;;;5021632;28;20053;-78
2022/11/11 05:50:50;;;;;;;5.90;3.70;;;;;;;;;;5022468;28;20040;-79
2022/11/11 05:53:15;;;;;;;7.55;3.65;;;;;;;;;;5023266;28;20028;-78
2022/11/11 05:55:44;;;;;;;7.07;3.42;;;;;;;;;;5022976;28;20025;-78
2022/11/11 05:58:09;;;;;;;7.00;3.50;;;;;;;;;;5021484;28;20022;-79
2022/11/11 06:00:35;;;;;;;7.20;3.22;;;;;;;;;;5022858;28;20061;-78
2022/11/11 06:03:07;;;;;;;6.95;3.35;;;;;;;;;;5022972;28;20060;-77
2022/11/11 06:05:35;;;;;;;5.10;3.08;;;;;;;;;;5019443;28;20237;-75
2022/11/11 06:08:00;;;;;;;6.70;3.58;;;;;;;;;;5022984;28;20033;-79
2022/11/11 06:10:32;;;;;;;6.97;3.03;;;;;;;;;;5022780;28;20022;-79
2022/11/11 06:13:01;;;;;;;5.18;3.00;;;;;;;;;;5022730;28;20337;-75
2022/11/11 06:15:27;;;;;;;6.40;3.25;;;;;;;;;;5022693;28;20028;-76
2022/11/11 06:17:52;;;;;;;6.53;2.75;;;;;;;;;;5022702;28;20108;-75
2022/11/11 06:20:18;;;;;;;6.07;3.30;;;;;;;;;;5022269;28;20098;-75
2022/11/11 06:22:56;;;;;;;7.97;3.20;;;;;;;;;;5021436;28;20218;-75
2022/11/11 06:28:12;;;;;;;5.88;3.30;;;;;;;;;;5022532;28;20056;-75
2022/11/11 06:30:38;;;;;;;7.20;3.17;;;;;;;;;;5022312;28;20021;-74
2022/11/11 06:33:06;;;;;;;7.35;3.17;;;;;;;;;;5022438;28;20025;-74
2022/11/11 06:35:33;;;;;;;5.30;3.03;;;;;;;;;;5022437;28;20064;-75
2022/11/11 06:37:58;;;;;;;5.60;2.90;;;;;;;;;;5022281;28;20017;-74
2022/11/11 06:40:24;;;;;;;6.28;3.00;;;;;;;;;;5022267;28;20540;-74
2022/11/11 06:42:49;;;;;;;6.65;3.17;;;;;;;;;;5021829;28;20093;-74
2022/11/11 06:45:15;;;;;;;6.65;2.90;;;;;;;;;;5021499;28;20022;-74
2022/11/11 06:47:41;;;;;;;4.97;2.80;;;;;;;;;;5020794;28;20022;-74
2022/11/11 06:50:07;;;;;;;6.28;2.90;;;;;;;;;;5020742;28;20356;-75
2022/11/11 06:52:33;;;;;;;6.78;3.22;;;;;;;;;;5020730;28;20332;-74
2022/11/11 06:54:58;;;;;;;5.47;2.80;;;;;;;;;;5019628;28;20021;-74
2022/11/11 06:57:23;;;;;;;5.00;2.80;;;;;;;;;;5021314;28;20029;-74
2022/11/11 06:59:49;;;;;;;4.50;2.92;;;;;;;;;;5021384;28;20209;-75
2022/11/11 07:02:14;;;;;;;7.60;2.97;;;;;;;;;;5021642;28;20072;-74
2022/11/11 07:04:39;;;;;;;5.07;2.88;;;;;;;;;;5021589;28;20241;-75
2022/11/11 07:07:05;;;;;;;7.00;2.92;;;;;;;;;;5021484;28;20340;-75
2022/11/11 07:09:31;;;;;;;6.20;3.03;;;;;;;;;;5021377;28;20089;-74
2022/11/11 07:11:56;;;;;;;6.72;2.92;;;;;;;;;;5020453;28;20026;-74
2022/11/11 07:14:21;;;;;;;7.82;3.40;;;;;;;;;;5020652;28;20029;-74
2022/11/11 07:16:47;;;;;;;6.95;3.17;;;;;;;;;;5020716;28;20026;-75
2022/11/11 07:19:12;;;;;;;6.20;3.13;;;;;;;;;;5020889;28;20033;-74
2022/11/11 07:21:37;;;;;;;7.95;3.28;;;;;;;;;;5016697;28;20018;-75
2022/11/11 07:24:03;;;;;;;8.57;3.13;;;;;;;;;;5012919;28;20029;-75
2022/11/11 07:26:28;;;;;;;9.25;3.08;;;;;;;;;;5014183;28;20083;-79
2022/11/11 07:28:54;;;;;;;5.85;3.08;;;;;;;;;;5010370;28;20026;-77
2022/11/11 07:31:20;;;;;;;8.70;3.25;;;;;;;;;;5014403;28;20674;-78
2022/11/11 07:33:45;;;;;;;7.18;3.00;;;;;;;;;;5015791;28;20321;-77
2022/11/11 07:36:11;;;;;;;11.10;3.05;;;;;;;;;;5016908;28;20026;-77
2022/11/11 07:38:36;;;;;;;18.50;3.47;;;;;;;;;;5010906;28;20033;-79
2022/11/11 07:41:01;;;;;;;9.32;3.10;;;;;;;;;;5008683;28;20033;-82
2022/11/11 07:43:27;;;;;;;10.02;2.90;;;;;;;;;;5010227;28;20088;-80
2022/11/11 07:45:52;;;;;;;7.05;2.80;;;;;;;;;;5008808;28;20022;-78
2022/11/11 07:48:17;;;;;;;8.45;2.58;;;;;;;;;;5008316;28;20540;-78
2022/11/11 07:50:43;;;;;;;5.93;2.00;;;;;;;;;;5008326;28;20033;-82
2022/11/11 07:53:08;;;;;;;8.93;2.80;;;;;;;;;;5007182;28;20425;-80
2022/11/11 07:55:34;;;;;;;8.35;2.50;;;;;;;;;;5007324;28;20029;-81
2022/11/11 07:58:01;;;;;;;13.48;2.58;;;;;;;;;;5007155;28;20046;-85
2022/11/11 08:00:26;;;;;;;8.55;2.55;;;;;;;;;;5007886;28;20446;-79
2022/11/11 08:02:52;;;;;;;6.47;2.30;;;;;;;;;;5009838;28;20109;-80
2022/11/11 08:05:17;;;;;;;9.05;2.72;;;;;;;;;;5008508;28;20552;-80
2022/11/11 08:07:43;;;;;;;6.25;2.40;;;;;;;;;;5011751;28;20030;-77
2022/11/11 08:10:10;;;;;;;7.75;2.58;;;;;;;;;;5014164;28;20092;-77
2022/11/11 08:15:19;;;;;;;6.65;2.25;;;;;;;;;;5009989;28;20457;-82
2022/11/11 08:17:45;;;;;;;14.38;2.63;;;;;;;;;;5009880;28;20430;-80
2022/11/11 08:20:11;;;;;;;8.02;2.38;;;;;;;;;;5009664;28;20049;-79
2022/11/11 08:22:41;;;;;;;10.98;2.60;;;;;;;;;;5009930;28;20478;-77
2022/11/11 08:25:08;;;;;;;8.27;2.17;;;;;;;;;;5001019;28;20050;-76
2022/11/11 08:27:34;;;;;;;7.28;1.90;;;;;;;;;;5010009;28;20022;-77
2022/11/11 08:30:00;;;;;;;6.07;2.25;;;;;;;;;;5009466;28;20022;-76
2022/11/11 08:32:26;;;;;;;8.35;1.92;;;;;;;;;;5009188;28;20026;-75
2022/11/11 08:34:51;;;;;;;7.32;1.80;;;;;;;;;;5010820;28;20057;-75
2022/11/11 08:37:16;;;;;;;6.22;1.98;;;;;;;;;;5008127;28;20108;-76
2022/11/11 08:39:42;;;;;;;7.18;1.95;;;;;;;;;;5008636;28;20022;-74
2022/11/11 08:42:07;;;;;;;7.28;1.80;;;;;;;;;;5008361;28;20083;-75
2022/11/11 08:44:33;;;;;;;11.43;2.13;;;;;;;;;;5013876;28;20026;-76
2022/11/11 08:46:58;;;;;;;10.80;1.90;;;;;;;;;;5013134;28;20460;-77
2022/11/11 08:49:24;;;;;;;7.22;1.95;;;;;;;;;;5012818;28;20029;-82
2022/11/11 08:51:49;;;;;;;6.07;1.83;;;;;;;;;;4995405;28;20026;-75
2022/11/11 08:54:14;;;;;;;5.78;1.60;;;;;;;;;;5012947;28;20037;-76
2022/11/11 08:56:40;;;;;;;8.65;1.80;;;;;;;;;;5012991;28;20061;-76
2022/11/11 08:59:06;;;;;;;6.03;1.50;;;;;;;;;;5012830;28;20030;-76
2022/11/11 09:01:31;;;;;;;12.65;1.80;;;;;;;;;;5012788;28;20029;-74
2022/11/11 09:03:56;;;;;;;6.78;1.67;;;;;;;;;;5012292;28;20539;-81
2022/11/11 09:06:22;;;;;;;6.13;1.58;;;;;;;;;;4995076;28;20029;-76
2022/11/11 09:08:47;;;;;;;5.07;1.80;;;;;;;;;;5012308;28;20409;-74
2022/11/11 09:11:13;;;;;;;3.92;1.40;;;;;;;;;;5012521;28;20105;-77
2022/11/11 09:13:39;;;;;;;8.70;1.70;;;;;;;;;;5012462;28;20057;-73
2022/11/11 09:16:05;;;;;;;3.63;1.52;;;;;;;;;;4994913;28;20030;-73
2022/11/11 09:18:31;;;;;;;9.93;1.63;;;;;;;;;;5012263;28;20651;-73
2022/11/11 09:20:59;;;;;;;5.47;1.90;;;;;;;;;;5012226;28;20111;-72
2022/11/11 09:23:24;;;;;;;8.45;1.73;;;;;;;;;;5011964;28;20076;-73
2022/11/11 09:25:49;;;;;;;7.13;1.77;;;;;;;;;;5012327;28;20478;-74
2022/11/11 09:28:15;;;;;;;9.02;1.67;;;;;;;;;;5011906;28;20022;-73
2022/11/11 09:30:40;;;;;;;7.63;1.75;;;;;;;;;;4994419;28;20248;-73
2022/11/11 09:33:05;;;;;;;11.85;1.83;;;;;;;;;;5012085;28;20437;-72
2022/11/11 09:35:31;;;;;;;9.50;1.67;;;;;;;;;;5012297;28;20102;-70
2022/11/11 09:37:58;;;;;;;7.22;1.73;;;;;;;;;;5009379;28;20030;-70
2022/11/11 09:40:27;;;;;;;8.52;1.95;;;;;;;;;;5014787;28;20053;-70
2022/11/11 09:43:16;;;;;;;6.88;1.50;;;;;;;;;;5019902;28;20501;-72
2022/11/11 09:46:07;;;;;;;4.57;1.37;;;;;;;;;;5029852;28;20029;-72
2022/11/11 09:48:55;;;;;;;7.07;1.60;;;;;;;;;;5031368;28;20026;-72
2022/11/11 09:51:29;;;;;;;8.80;1.80;;;;;;;;;;5012318;28;20044;-71
2022/11/11 09:54:05;;;;;;;6.50;1.55;;;;;;;;;;5030560;28;20033;-70
2022/11/11 09:56:31;;;;;;;8.38;1.67;;;;;;;;;;5032591;28;20049;-71
2022/11/11 09:59:14;;;;;;;4.53;1.60;;;;;;;;;;5031014;28;20025;-72
2022/11/11 10:01:48;;;;;;;5.70;1.52;;;;;;;;;;5031201;28;20029;-71
2022/11/11 10:04:29;;;;;;;7.72;1.50;;;;;;;;;;5030940;28;20030;-73
2022/11/11 10:07:02;;;;;;;6.72;1.48;;;;;;;;;;5031434;28;20100;-73
2022/11/11 10:09:40;;;;;;;7.75;1.70;;;;;;;;;;5031112;28;20033;-71
2022/11/11 10:12:11;;;;;;;4.60;1.38;;;;;;;;;;5030921;28;20053;-72
2022/11/11 10:14:44;;;;;;;5.28;1.38;;;;;;;;;;5030978;28;20393;-72
2022/11/11 10:17:34;;;;;;;8.52;1.52;;;;;;;;;;5031201;28;20025;-73
2022/11/11 10:20:22;;;;;;;6.57;1.38;;;;;;;;;;5013069;28;20544;-71
2022/11/11 10:22:53;;;;;;;4.32;1.50;;;;;;;;;;5030782;28;20038;-72
2022/11/11 10:25:20;;;;;;;5.60;1.52;;;;;;;;;;5030607;28;20071;-76
2022/11/11 10:27:49;;;;;;;6.35;1.60;;;;;;;;;;5030954;28;20037;-73
2022/11/11 10:30:18;;;;;;;8.70;1.70;;;;;;;;;;5033505;28;20044;-73
2022/11/11 10:32:49;;;;;;;6.30;1.60;;;;;;;;;;5030366;28;20033;-72
2022/11/11 10:35:19;;;;;;;5.22;1.63;;;;;;;;;;5030447;28;20028;-73
2022/11/11 10:37:44;;;;;;;7.10;1.60;;;;;;;;;;5013046;28;20030;-73
2022/11/11 10:40:28;;;;;;;7.05;1.50;;;;;;;;;;5030420;28;20032;-73
2022/11/11 10:42:53;;;;;;;4.57;1.50;;;;;;;;;;5030371;28;20547;-74
2022/11/11 10:45:48;;;;;;;5.30;1.67;;;;;;;;;;5030422;28;20029;-73
2022/11/11 10:48:19;;;;;;;5.95;1.30;;;;;;;;;;5030704;28;20029;-73
2022/11/11 10:50:56;;;;;;;6.22;1.30;;;;;;;;;;5030427;28;20473;-72
2022/11/11 10:53:33;;;;;;;6.05;1.40;;;;;;;;;;5030387;28;20100;-72
2022/11/11 10:56:25;;;;;;;13.82;1.80;;;;;;;;;;5030155;28;20022;-73
2022/11/11 10:59:08;;;;;;;4.18;1.33;;;;;;;;;;5030313;28;20017;-72
2022/11/11 11:01:40;;;;;;;7.88;1.40;;;;;;;;;;5030250;28;20037;-72
2022/11/11 11:04:13;;;;;;;11.88;1.67;;;;;;;;;;5029995;28;20509;-72
2022/11/11 11:06:43;;;;;;;8.43;1.40;;;;;;;;;;5029245;28;20018;-72
2022/11/11 11:09:11;;;;;;;6.22;1.40;;;;;;;;;;5012302;28;20026;-72
2022/11/11 11:11:54;;;;;;;4.95;1.20;;;;;;;;;;5030030;28;20115;-73
2022/11/11 11:14:33;;;;;;;4.63;1.55;;;;;;;;;;5029906;28;20029;-72
2022/11/11 11:17:06;;;;;;;6.65;1.35;;;;;;;;;;5030133;28;20057;-72
2022/11/11 11:19:31;;;;;;;6.38;1.27;;;;;;;;;;5029956;28;20025;-71
2022/11/11 11:22:00;;;;;;;6.15;1.45;;;;;;;;;;5030341;28;20025;-72
2022/11/11 11:24:28;;;;;;;5.88;1.33;;;;;;;;;;5029727;28;20033;-73
2022/11/11 11:26:59;;;;;;;3.97;1.30;;;;;;;;;;5029899;28;20623;-72
2022/11/11 11:29:31;;;;;;;4.68;1.30;;;;;;;;;;5029973;28;20022;-72
2022/11/11 11:32:15;;;;;;;5.38;1.27;;;;;;;;;;5029690;28;20032;-72
2022/11/11 11:34:52;;;;;;;6.10;1.30;;;;;;;;;;5029664;28;20222;-72
2022/11/11 11:37:20;;;;;;;5.43;1.20;;;;;;;;;;5029890;28;20029;-72
2022/11/11 11:39:47;;;;;;;4.90;1.50;;;;;;;;;;5012051;28;20114;-72
2022/11/11 11:42:37;;;;;;;7.40;1.30;;;;;;;;;;5029565;28;20030;-72
2022/11/11 11:45:18;;;;;;;;;;;;;;;;;;5030025;28;20028;-73
2022/11/11 11:47:53;;;;;;;;;;;;;;;;;;5030221;28;20284;-72
2022/11/11 11:50:26;;;;;;;4.97;1.45;;;;;;;;;;5029519;28;19920;-72
2022/11/11 11:53:06;;;;;;;5.97;1.30;;;;;;;;;;5029624;28;20552;-72
2022/11/11 11:55:37;;;;;;;7.50;1.80;;;;;;;;;;5029435;28;20041;-72
2022/11/11 11:58:19;;;;;;;8.40;1.30;;;;;;;;;;5029550;28;20417;-73
2022/11/11 12:01:07;;;;;;;4.75;1.50;;;;;;;;;;5029506;28;20112;-73
2022/11/11 12:04:03;;;;;;;5.97;1.33;;;;;;;;;;5029524;28;20029;-72
2022/11/11 12:06:35;;;;;;;6.60;1.42;;;;;;;;;;5029261;28;20141;-72
2022/11/11 12:09:31;;;;;;;5.95;1.20;;;;;;;;;;5029708;28;20463;-72
2022/11/11 12:12:12;;;;;;;6.35;1.55;;;;;;;;;;5029385;28;20564;-73
2022/11/11 12:14:56;;;;;;;6.05;1.63;;;;;;;;;;5029359;28;20034;-72
2022/11/11 12:17:34;;;;;;;7.55;1.58;;;;;;;;;;5030464;28;20037;-72
2022/11/11 12:20:35;;;;;;;10.63;1.83;;;;;;;;;;5033210;28;20030;-72
2022/11/11 12:23:25;;;;;;;;;;;;;;;;;;4952665;29;20032;-72
2022/11/11 12:26:07;;;;;;;6.05;1.40;;;;;;;;;;5029830;28;19939;-72
2022/11/11 12:28:57;;;;;;;5.15;1.58;;;;;;;;;;5032992;28;20034;-72
2022/11/11 12:31:34;;;;;;;4.82;1.40;;;;;;;;;;5033058;28;20052;-72
2022/11/11 12:34:12;;;;;;;8.45;1.58;;;;;;;;;;5033174;28;20021;-73
2022/11/11 12:36:52;;;;;;;4.97;1.58;;;;;;;;;;5032865;28;20029;-73
2022/11/11 12:39:21;;;;;;;;;;;;;;;;;;5033565;28;20520;-72
2022/11/11 12:41:55;;;;;;;4.38;1.40;;;;;;;;;;5032545;28;19920;-72
2022/11/11 12:44:33;;;;;;;6.40;1.40;;;;;;;;;;5032728;28;20036;-73
2022/11/11 12:47:46;;;;;;;5.70;1.30;;;;;;;;;;5014988;28;20026;-72
2022/11/11 12:50:21;;;;;;;5.40;1.60;;;;;;;;;;4952091;29;20078;-73
2022/11/11 12:53:16;;;;;;;6.10;1.45;;;;;;;;;;4952020;29;20023;-72
2022/11/11 12:55:58;;;;;;;5.93;1.70;;;;;;;;;;5015238;28;20036;-73
2022/11/11 12:58:45;;;;;;;6.63;1.50;;;;;;;;;;5032677;28;20053;-73
2022/11/11 13:01:45;;;;;;;8.68;1.80;;;;;;;;;;5032309;28;20060;-73
2022/11/11 13:04:34;;;;;;;6.53;1.95;;;;;;;;;;5032350;28;20116;-73
2022/11/11 13:07:27;;;;;;;6.78;1.67;;;;;;;;;;5032202;28;20068;-73
2022/11/11 13:10:01;;;;;;;7.95;1.80;;;;;;;;;;5032424;28;20055;-71
2022/11/11 13:12:59;;;;;;;9.45;1.80;;;;;;;;;;5032135;28;20026;-73
2022/11/11 13:15:26;;;;;;;6.50;1.83;;;;;;;;;;5032347;28;20100;-73
2022/11/11 13:17:52;;;;;;;5.22;1.60;;;;;;;;;;5032286;28;20026;-72
2022/11/11 13:20:17;;;;;;;6.55;2.00;;;;;;;;;;5032223;28;20037;-73
2022/11/11 13:22:42;;;;;;;5.45;1.70;;;;;;;;;;5032050;28;20034;-73
2022/11/11 13:25:13;;;;;;;6.13;1.90;;;;;;;;;;5032128;28;20033;-73
2022/11/11 13:28:02;;;;;;;4.68;1.40;;;;;;;;;;5031909;28;20045;-73
2022/11/11 13:30:52;;;;;;;6.47;1.85;;;;;;;;;;5030951;28;20109;-73
2022/11/11 13:33:21;;;;;;;9.73;1.88;;;;;;;;;;5031993;28;20036;-73
2022/11/11 13:35:57;;;;;;;7.50;1.80;;;;;;;;;;5031913;28;20044;-73
2022/11/11 13:38:31;;;;;;;9.45;1.92;;;;;;;;;;5031827;28;20053;-73
2022/11/11 13:41:01;;;;;;;5.53;1.90;;;;;;;;;;5013651;28;20472;-73
2022/11/11 13:43:35;;;;;;;6.15;2.05;;;;;;;;;;5031472;28;20032;-73
2022/11/11 13:46:03;;;;;;;6.78;2.00;;;;;;;;;;5031571;28;20040;-73
2022/11/11 13:48:37;;;;;;;7.72;1.88;;;;;;;;;;5014010;28;20417;-73
2022/11/11 13:51:26;;;;;;;7.57;2.05;;;;;;;;;;5031637;28;20644;-73
2022/11/11 13:53:52;;;;;;;5.93;1.60;;;;;;;;;;5031816;28;20025;-72
2022/11/11 13:56:26;;;;;;;6.35;1.90;;;;;;;;;;5031542;28;20036;-73
2022/11/11 13:58:53;;;;;;;6.32;1.85;;;;;;;;;;5031334;28;20120;-72
2022/11/11 14:01:19;;;;;;;7.90;2.20;;;;;;;;;;5031587;28;20539;-72
2022/11/11 14:03:44;;;;;;;8.32;2.13;;;;;;;;;;5031260;28;20029;-72
2022/11/11 14:06:15;;;;;;;10.85;2.13;;;;;;;;;;5031032;28;20045;-73
2022/11/11 14:08:49;;;;;;;9.48;2.30;;;;;;;;;;5031517;28;20025;-73
2022/11/11 14:11:24;;;;;;;6.65;2.22;;;;;;;;;;5031183;28;20036;-73
2022/11/11 14:13:53;;;;;;;9.93;2.40;;;;;;;;;;5013425;28;20535;-73
2022/11/11 14:16:34;;;;;;;7.00;2.57;;;;;;;;;;5031012;28;20417;-72
2022/11/11 14:19:27;;;;;;;8.93;2.42;;;;;;;;;;5031192;28;20022;-72
2022/11/11 14:21:58;;;;;;;6.22;2.70;;;;;;;;;;5031014;28;20112;-73
2022/11/11 14:24:45;;;;;;;8.98;2.65;;;;;;;;;;5030929;28;20112;-73
2022/11/11 14:27:11;;;;;;;8.27;2.28;;;;;;;;;;5030843;28;20030;-73
2022/11/11 14:29:46;;;;;;;9.07;2.30;;;;;;;;;;5031095;28;20018;-73
2022/11/11 14:32:28;;;;;;;7.90;2.03;;;;;;;;;;5031058;28;20029;-72
2022/11/11 14:35:23;;;;;;;5.15;1.60;;;;;;;;;;5030862;28;20029;-73
2022/11/11 14:37:52;;;;;;;8.50;1.85;;;;;;;;;;5030476;28;20022;-73
2022/11/11 14:40:29;;;;;;;8.55;2.20;;;;;;;;;;5030561;28;20036;-74
2022/11/11 14:42:55;;;;;;;5.80;1.70;;;;;;;;;;5012502;28;20040;-73
2022/11/11 14:45:29;;;;;;;6.32;2.05;;;;;;;;;;5030702;28;20044;-73
2022/11/11 14:47:58;;;;;;;5.95;1.95;;;;;;;;;;5030394;28;20045;-73
2022/11/11 14:50:43;;;;;;;7.68;2.30;;;;;;;;;;5030614;28;20061;-73
2022/11/11 14:53:17;;;;;;;5.57;1.50;;;;;;;;;;5029894;28;20517;-73
2022/11/11 14:55:50;;;;;;;6.78;1.92;;;;;;;;;;5030725;28;20075;-72
2022/11/11 14:58:19;;;;;;;5.63;1.67;;;;;;;;;;5030045;28;20520;-72
2022/11/11 15:01:03;;;;;;;5.70;1.75;;;;;;;;;;5030423;28;20036;-74
2022/11/11 15:03:43;;;;;;;7.90;1.75;;;;;;;;;;5029767;28;20075;-73
2022/11/11 15:06:11;;;;;;;8.02;2.05;;;;;;;;;;5030179;28;20057;-73
2022/11/11 15:09:10;;;;;;;8.55;1.90;;;;;;;;;;5029882;28;20083;-74
2022/11/11 15:11:48;;;;;;;7.47;2.00;;;;;;;;;;5030121;28;20065;-73
2022/11/11 15:14:41;;;;;;;6.32;1.70;;;;;;;;;;5029976;28;20113;-73
2022/11/11 15:17:27;;;;;;;4.82;1.77;;;;;;;;;;5029997;28;20481;-72
2022/11/11 15:20:01;;;;;;;6.13;1.75;;;;;;;;;;5030136;28;20033;-72
2022/11/11 15:22:33;;;;;;;6.22;1.83;;;;;;;;;;5029973;28;20049;-72
2022/11/11 15:25:15;;;;;;;6.28;1.95;;;;;;;;;;5012354;28;20119;-72
2022/11/11 15:27:59;;;;;;;5.68;1.70;;;;;;;;;;5029639;28;20386;-71
2022/11/11 15:30:45;;;;;;;7.35;1.77;;;;;;;;;;5029963;28;20493;-72
2022/11/11 15:33:21;;;;;;;5.47;1.58;;;;;;;;;;5029638;28;20401;-72
2022/11/11 15:36:00;;;;;;;7.80;1.67;;;;;;;;;;5030137;28;20021;-71
2022/11/11 15:38:26;;;;;;;4.53;1.90;;;;;;;;;;5029819;28;20030;-71
2022/11/11 15:40:57;;;;;;;7.63;2.03;;;;;;;;;;5029998;28;20493;-72
2022/11/11 15:43:27;;;;;;;7.60;1.90;;;;;;;;;;5029405;28;20030;-72
2022/11/11 15:45:56;;;;;;;5.63;1.65;;;;;;;;;;5029831;28;20021;-72
2022/11/11 15:48:42;;;;;;;6.70;1.70;;;;;;;;;;5029680;28;20036;-72
2022/11/11 15:51:29;;;;;;;8.80;2.03;;;;;;;;;;5029751;28;20021;-72
2022/11/11 15:54:08;;;;;;;6.80;1.70;;;;;;;;;;5033077;28;20060;-72
2022/11/11 15:56:37;;;;;;;7.47;1.70;;;;;;;;;;5033818;28;20492;-72
2022/11/11 15:59:30;;;;;;;6.68;1.83;;;;;;;;;;5033450;28;20033;-73
2022/11/11 16:01:57;;;;;;;6.28;1.63;;;;;;;;;;5033815;28;20025;-72
2022/11/11 16:04:23;;;;;;;5.80;1.80;;;;;;;;;;5033059;28;20045;-72
2022/11/11 16:06:49;;;;;;;8.10;1.90;;;;;;;;;;5033538;28;20029;-72
2022/11/11 16:09:24;;;;;;;4.40;1.60;;;;;;;;;;5033131;28;20029;-72
2022/11/11 16:11:53;;;;;;;7.88;1.90;;;;;;;;;;5033210;28;20401;-70
2022/11/11 16:14:27;;;;;;;10.30;2.35;;;;;;;;;;5033168;28;20152;-72
2022/11/11 16:16:56;;;;;;;6.38;1.60;;;;;;;;;;5033604;28;20071;-72
2022/11/11 16:19:33;;;;;;;9.00;1.80;;;;;;;;;;5033354;28;20028;-72
2022/11/11 16:22:26;;;;;;;7.28;1.67;;;;;;;;;;5033299;28;20508;-72
2022/11/11 16:24:52;;;;;;;6.70;1.75;;;;;;;;;;5032278;28;20050;-72